createdAt,value
2022-11-05T00:02:22.956Z,8.00
2022-11-05T00:05:08.398Z,6.80
2022-11-05T00:07:54.585Z,6.67
2022-11-05T00:10:24.048Z,7.00
2022-11-05T00:13:11.416Z,12.50
2022-11-05T00:15:57.074Z,5.00
2022-11-05T00:18:25.124Z,7.00
2022-11-05T00:20:53.160Z,6.80
2022-11-05T00:23:38.838Z,7.00
2022-11-05T00:26:07.638Z,6.60
2022-11-05T00:28:37.114Z,6.40
2022-11-05T00:31:09.770Z,6.00
2022-11-05T00:33:37.930Z,5.00
2022-11-05T00:36:06.845Z,5.00
2022-11-05T00:38:35.036Z,6.00
2022-11-05T00:41:03.034Z,6.00
2022-11-05T00:43:48.349Z,5.00
2022-11-05T00:46:17.713Z,3.33
2022-11-05T00:49:03.311Z,5.00
2022-11-05T00:51:31.335Z,4.00
2022-11-05T00:53:59.382Z,4.75
2022-11-05T00:56:27.403Z,6.00
2022-11-05T00:58:56.527Z,4.00
2022-11-05T01:01:26.022Z,5.80
2022-11-05T01:03:54.142Z,5.60
2022-11-05T01:06:22.373Z,5.00
2022-11-05T01:08:50.451Z,4.00
2022-11-05T01:11:33.211Z,4.40
2022-11-05T01:14:02.394Z,5.00
2022-11-05T01:16:32.367Z,4.40
2022-11-05T01:19:00.436Z,4.00
2022-11-05T01:21:28.460Z,3.00
2022-11-05T01:23:56.524Z,4.50
2022-11-05T01:26:24.535Z,3.00
2022-11-05T01:28:52.920Z,4.60
2022-11-05T01:31:21.115Z,4.00
2022-11-05T01:33:50.587Z,4.00
2022-11-05T01:36:18.672Z,3.50
2022-11-05T01:38:46.721Z,4.25
2022-11-05T01:41:14.746Z,4.40
2022-11-05T01:43:47.220Z,4.00
2022-11-05T01:46:15.245Z,3.50
2022-11-05T01:48:43.286Z,3.00
2022-11-05T01:51:15.336Z,4.40
2022-11-05T01:53:44.442Z,4.00
2022-11-05T01:56:13.938Z,4.00
2022-11-05T01:58:43.727Z,4.00
2022-11-05T02:01:11.910Z,3.40
2022-11-05T02:03:39.960Z,4.00
2022-11-05T02:06:09.461Z,4.00
2022-11-05T02:08:50.375Z,5.00
2022-11-05T02:11:18.640Z,4.75
2022-11-05T02:13:46.836Z,4.00
2022-11-05T02:16:17.040Z,4.00
2022-11-05T02:18:50.535Z,4.00
2022-11-05T02:21:46.850Z,5.00
2022-11-05T02:24:57.528Z,4.00
2022-11-05T02:27:38.106Z,5.00
2022-11-05T02:30:22.586Z,4.00
2022-11-05T02:33:08.190Z,4.00
2022-11-05T02:36:00.080Z,4.00
2022-11-05T02:38:39.427Z,3.60
2022-11-05T02:41:09.965Z,3.00
2022-11-05T02:43:43.049Z,3.25
2022-11-05T02:46:16.189Z,3.00
2022-11-05T02:48:46.565Z,3.50
2022-11-05T02:51:17.536Z,4.00
2022-11-05T02:53:47.521Z,4.50
2022-11-05T02:56:18.199Z,4.60
2022-11-05T02:58:46.258Z,3.75
2022-11-05T03:01:15.873Z,3.40
2022-11-05T03:03:44.669Z,3.75
2022-11-05T03:06:48.041Z,4.00
2022-11-05T03:10:01.646Z,4.00
2022-11-05T03:12:33.776Z,3.00
2022-11-05T03:15:08.387Z,4.25
2022-11-05T03:17:39.924Z,3.75
2022-11-05T03:20:15.171Z,4.00
2022-11-05T03:22:45.060Z,2.00
2022-11-05T03:25:14.623Z,4.00
2022-11-05T03:27:45.801Z,3.60
2022-11-05T03:30:14.351Z,2.60
2022-11-05T03:32:47.000Z,2.60
2022-11-05T03:35:16.793Z,3.00
2022-11-05T03:37:44.972Z,3.25
2022-11-05T03:40:13.366Z,4.75
2022-11-05T03:42:43.584Z,3.40
2022-11-05T03:45:15.214Z,3.60
2022-11-05T03:47:45.587Z,4.00
2022-11-05T03:50:19.826Z,3.00
2022-11-05T03:52:49.874Z,5.00
2022-11-05T03:55:18.019Z,2.80
2022-11-05T03:57:47.358Z,3.75
2022-11-05T04:00:15.618Z,3.00
2022-11-05T04:02:45.155Z,4.00
2022-11-05T04:05:13.366Z,4.60
2022-11-05T04:07:58.688Z,4.25
2022-11-05T04:10:44.062Z,3.50
2022-11-05T04:13:27.942Z,4.00
2022-11-05T04:16:14.411Z,3.60
2022-11-05T04:18:43.890Z,3.40
2022-11-05T04:21:29.350Z,3.00
2022-11-05T04:24:09.477Z,2.40
2022-11-05T04:26:38.101Z,4.00
2022-11-05T04:29:23.950Z,4.40
2022-11-05T04:31:52.017Z,3.00
2022-11-05T04:34:22.271Z,3.00
2022-11-05T04:36:50.493Z,3.40
2022-11-05T04:39:18.776Z,3.00
2022-11-05T04:41:48.010Z,4.00
2022-11-05T04:44:16.339Z,3.00
2022-11-05T04:46:44.371Z,3.80
2022-11-05T04:49:12.428Z,3.00
2022-11-05T04:51:41.804Z,4.00
2022-11-05T04:54:09.870Z,2.50
2022-11-05T04:56:37.905Z,4.00
2022-11-05T04:59:05.964Z,3.20
2022-11-05T05:01:34.111Z,3.00
2022-11-05T05:04:02.236Z,2.40
2022-11-05T05:06:30.279Z,2.80
2022-11-05T05:08:59.693Z,3.00
2022-11-05T05:11:27.729Z,4.00
2022-11-05T05:13:55.802Z,5.00
2022-11-05T05:16:25.053Z,3.00
2022-11-05T05:18:53.146Z,4.00
2022-11-05T05:21:39.177Z,2.50
2022-11-05T05:24:10.669Z,4.50
2022-11-05T05:26:38.904Z,3.00
2022-11-05T05:29:07.038Z,3.00
2022-11-05T05:31:35.113Z,5.00
2022-11-05T05:34:03.245Z,5.00
2022-11-05T05:36:31.287Z,5.00
2022-11-05T05:38:59.356Z,5.00
2022-11-05T05:41:28.736Z,5.00
2022-11-05T05:43:56.790Z,5.00
2022-11-05T05:46:25.167Z,3.00
2022-11-05T05:48:53.436Z,5.00
2022-11-05T05:51:21.485Z,5.00
2022-11-05T05:53:50.085Z,3.40
2022-11-05T05:56:20.576Z,5.00
2022-11-05T05:58:50.055Z,5.00
2022-11-05T06:01:19.634Z,5.00
2022-11-05T06:03:48.373Z,4.75
2022-11-05T06:06:19.790Z,7.00
2022-11-05T06:08:48.063Z,4.50
2022-11-05T06:11:16.093Z,3.60
2022-11-05T06:13:44.152Z,4.80
2022-11-05T06:16:13.538Z,4.20
2022-11-05T06:18:41.604Z,4.00
2022-11-05T06:21:10.491Z,5.00
2022-11-05T06:23:39.487Z,6.20
2022-11-05T06:26:08.731Z,5.00
2022-11-05T06:28:36.882Z,7.00
2022-11-05T06:31:05.259Z,4.25
2022-11-05T06:33:34.667Z,4.00
2022-11-05T06:36:03.148Z,5.00
2022-11-05T06:38:33.077Z,3.00
2022-11-05T06:41:04.563Z,5.50
2022-11-05T06:43:37.005Z,5.00
2022-11-05T06:46:05.193Z,5.00
2022-11-05T06:48:34.610Z,7.00
2022-11-05T06:51:02.711Z,9.00
2022-11-05T06:53:30.831Z,7.60
2022-11-05T06:55:58.864Z,9.00
2022-11-05T06:58:27.391Z,10.00
2022-11-05T07:00:55.585Z,14.75
2022-11-05T07:03:23.676Z,8.00
2022-11-05T07:05:53.057Z,10.00
2022-11-05T07:08:21.117Z,5.00
2022-11-05T07:10:49.579Z,5.80
2022-11-05T07:13:17.670Z,8.00
2022-11-05T07:15:45.714Z,8.50
2022-11-05T07:18:13.771Z,7.00
2022-11-05T07:20:41.811Z,8.00
2022-11-05T07:23:12.260Z,10.00
2022-11-05T07:25:40.630Z,11.00
2022-11-05T07:28:08.976Z,12.20
2022-11-05T07:30:37.081Z,13.00
2022-11-05T07:33:05.313Z,13.00
2022-11-05T07:35:33.346Z,15.20
2022-11-05T07:38:01.402Z,20.67
2022-11-05T07:40:30.838Z,28.20
2022-11-05T07:42:59.566Z,27.00
2022-11-05T07:45:28.294Z,40.75
2022-11-05T07:47:57.323Z,22.00
2022-11-05T07:50:26.348Z,35.00
2022-11-05T07:52:54.425Z,36.60
2022-11-05T07:55:22.455Z,27.40
2022-11-05T07:57:52.095Z,22.50
2022-11-05T08:00:21.650Z,50.20
2022-11-05T08:03:03.838Z,108.67
2022-11-05T08:05:36.701Z,47.20
2022-11-05T08:08:05.113Z,34.60
2022-11-05T08:10:34.176Z,21.50
2022-11-05T08:13:03.694Z,17.00
2022-11-05T08:15:31.789Z,15.00
2022-11-05T08:18:00.101Z,20.00
2022-11-05T08:20:28.172Z,19.25
2022-11-05T08:22:56.939Z,13.25
2022-11-05T08:25:25.107Z,14.00
2022-11-05T08:27:56.714Z,17.80
2022-11-05T08:30:26.121Z,12.80
2022-11-05T08:32:57.727Z,12.33
2022-11-05T08:35:25.905Z,10.60
2022-11-05T08:37:57.742Z,16.75
2022-11-05T08:40:26.133Z,11.00
2022-11-05T08:42:54.272Z,10.00
2022-11-05T08:45:22.311Z,10.00
2022-11-05T08:47:51.730Z,10.25
2022-11-05T08:50:19.773Z,9.00
2022-11-05T08:52:47.841Z,12.40
2022-11-05T08:55:18.898Z,9.80
2022-11-05T08:57:47.186Z,10.00
2022-11-05T09:00:16.017Z,8.40
2022-11-05T09:02:44.195Z,8.00
2022-11-05T09:05:13.673Z,7.00
2022-11-05T09:07:41.792Z,8.00
2022-11-05T09:10:10.555Z,11.00
2022-11-05T09:12:38.628Z,9.00
2022-11-05T09:15:07.242Z,12.50
2022-11-05T09:17:35.320Z,8.60
2022-11-05T09:20:07.088Z,9.00
2022-11-05T09:22:40.594Z,9.00
2022-11-05T09:25:11.513Z,9.50
2022-11-05T09:27:39.574Z,12.40
2022-11-05T09:30:08.795Z,10.00
2022-11-05T09:32:36.858Z,10.20
2022-11-05T09:35:05.423Z,9.00
2022-11-05T09:37:33.511Z,8.00
2022-11-05T09:40:02.899Z,10.00
2022-11-05T09:42:32.816Z,9.00
2022-11-05T09:45:02.387Z,8.60
2022-11-05T09:47:32.152Z,8.60
2022-11-05T09:50:00.452Z,10.00
2022-11-05T09:52:29.585Z,7.50
2022-11-05T09:54:57.925Z,7.00
2022-11-05T09:57:28.853Z,7.00
2022-11-05T09:59:58.217Z,7.00
2022-11-05T10:02:28.877Z,9.00
2022-11-05T10:04:57.802Z,7.00
2022-11-05T10:07:26.867Z,7.00
2022-11-05T10:09:56.818Z,7.00
2022-11-05T10:12:27.375Z,5.00
2022-11-05T10:15:00.389Z,7.80
2022-11-05T10:17:28.787Z,4.20
2022-11-05T10:19:59.433Z,6.00
2022-11-05T10:22:27.498Z,5.00
2022-11-05T10:24:55.539Z,4.00
2022-11-05T10:27:24.657Z,4.00
2022-11-05T10:29:54.075Z,3.60
2022-11-05T10:32:27.481Z,5.00
2022-11-05T10:34:55.670Z,3.00
2022-11-05T10:37:23.825Z,6.00
2022-11-05T10:39:51.860Z,5.60
2022-11-05T10:42:38.266Z,3.00
2022-11-05T10:45:14.062Z,3.00
2022-11-05T10:47:58.240Z,3.00
2022-11-05T10:50:27.503Z,4.25
2022-11-05T10:52:58.523Z,4.00
2022-11-05T10:55:27.728Z,3.50
2022-11-05T10:57:57.186Z,4.00
2022-11-05T11:00:29.351Z,3.00
2022-11-05T11:02:59.302Z,4.40
2022-11-05T11:05:29.342Z,3.00
2022-11-05T11:07:59.269Z,3.40
2022-11-05T11:10:27.584Z,3.00
2022-11-05T11:12:55.619Z,2.40
2022-11-05T11:15:27.702Z,3.00
2022-11-05T11:17:56.523Z,2.40
2022-11-05T11:20:27.154Z,3.00
2022-11-05T11:23:03.273Z,4.60
2022-11-05T11:25:36.000Z,3.75
2022-11-05T11:28:05.089Z,3.00
2022-11-05T11:30:35.250Z,4.00
2022-11-05T11:33:07.889Z,4.00
2022-11-05T11:35:37.703Z,4.00
2022-11-05T11:38:05.907Z,4.00
2022-11-05T11:40:35.202Z,4.00
2022-11-05T11:43:05.437Z,3.00
2022-11-05T11:45:36.524Z,3.20
2022-11-05T11:48:06.712Z,9.40
2022-11-05T11:50:40.452Z,2.00
2022-11-05T11:53:45.415Z,3.00
2022-11-05T11:56:18.022Z,2.00
2022-11-05T11:58:47.946Z,2.40
2022-11-05T12:01:49.474Z,2.00
2022-11-05T12:04:42.132Z,2.00
2022-11-05T12:07:26.406Z,2.00
2022-11-05T12:10:00.289Z,2.00
2022-11-05T12:12:31.671Z,3.00
2022-11-05T12:15:01.451Z,1.00
2022-11-05T12:17:36.959Z,3.00
2022-11-05T12:20:26.625Z,2.00
2022-11-05T12:23:14.617Z,2.00
2022-11-05T12:25:45.858Z,2.50
2022-11-05T12:28:31.181Z,2.40
2022-11-05T12:31:07.021Z,1.00
2022-11-05T12:33:40.456Z,1.25
2022-11-05T12:36:15.680Z,1.00
2022-11-05T12:39:10.710Z,2.00
2022-11-05T12:41:43.310Z,2.00
2022-11-05T12:44:24.528Z,3.00
2022-11-05T12:46:59.001Z,1.00
2022-11-05T12:49:48.476Z,1.00
2022-11-05T12:52:26.488Z,1.00
2022-11-05T12:55:03.151Z,2.00
2022-11-05T12:57:32.063Z,1.60
2022-11-05T13:00:08.139Z,1.60
2022-11-05T13:02:39.274Z,0.00
2022-11-05T13:05:13.109Z,1.20
2022-11-05T13:07:50.746Z,1.40
2022-11-05T13:10:24.439Z,2.00
2022-11-05T13:12:58.712Z,2.00
2022-11-05T13:15:28.377Z,0.50
2022-11-05T13:17:59.923Z,0.40
2022-11-05T13:20:30.080Z,7.00
2022-11-05T13:23:01.162Z,1.50
2022-11-05T13:25:30.147Z,2.25
2022-11-05T13:28:00.569Z,1.00
2022-11-05T13:30:31.634Z,2.20
2022-11-05T13:33:01.169Z,2.25
2022-11-05T13:35:30.537Z,1.00
2022-11-05T13:38:24.756Z,2.00
2022-11-05T13:41:13.419Z,3.40
2022-11-05T13:43:56.496Z,4.00
2022-11-05T13:46:31.099Z,2.25
2022-11-05T13:49:17.178Z,2.00
2022-11-05T13:51:55.284Z,2.40
2022-11-05T13:55:00.244Z,2.00
2022-11-05T13:57:39.170Z,2.00
2022-11-05T14:00:11.483Z,2.00
2022-11-05T14:02:41.657Z,18.00
2022-11-05T14:05:20.760Z,8.25
2022-11-05T14:07:49.370Z,10.20
2022-11-05T14:10:25.562Z,4.60
2022-11-05T14:12:54.874Z,2.00
2022-11-05T14:15:25.690Z,2.00
2022-11-05T14:17:59.526Z,2.00
2022-11-05T14:20:43.910Z,3.00
2022-11-05T14:23:48.679Z,1.00
2022-11-05T14:26:20.084Z,2.60
2022-11-05T14:28:49.746Z,4.00
2022-11-05T14:31:47.474Z,7.00
2022-11-05T14:34:20.639Z,5.00
2022-11-05T14:37:04.357Z,6.60
2022-11-05T14:39:32.576Z,5.60
2022-11-05T14:42:04.490Z,6.00
2022-11-05T14:44:34.111Z,10.60
2022-11-05T14:47:04.237Z,19.00
2022-11-05T14:49:34.499Z,6.40
2022-11-05T14:52:07.362Z,6.00
2022-11-05T14:54:38.109Z,11.00
2022-11-05T14:57:07.525Z,10.00
2022-11-05T15:00:01.113Z,10.00
2022-11-05T15:02:34.240Z,25.40
2022-11-05T15:05:39.267Z,8.00
2022-11-05T15:08:30.214Z,12.00
2022-11-05T15:11:03.584Z,9.60
2022-11-05T15:13:34.884Z,9.75
2022-11-05T15:16:03.153Z,8.20
2022-11-05T15:18:32.797Z,16.00
2022-11-05T15:21:02.283Z,29.00
2022-11-05T15:23:37.676Z,32.20
2022-11-05T15:26:07.581Z,28.00
2022-11-05T15:28:38.525Z,18.00
2022-11-05T15:31:07.333Z,14.00
2022-11-05T15:33:35.386Z,10.00
2022-11-05T15:36:10.583Z,14.40
2022-11-05T15:38:38.852Z,17.00
2022-11-05T15:41:07.801Z,34.75
2022-11-05T15:43:37.177Z,26.80
2022-11-05T15:46:07.518Z,18.67
2022-11-05T15:48:35.845Z,22.50
2022-11-05T15:51:03.913Z,27.25
2022-11-05T15:53:56.564Z,22.00
2022-11-05T15:56:24.661Z,21.60
2022-11-05T15:58:54.665Z,12.33
2022-11-05T16:01:23.787Z,6.60
2022-11-05T16:03:52.170Z,5.00
2022-11-05T16:06:20.266Z,7.20
2022-11-05T16:08:49.721Z,15.00
2022-11-05T16:11:24.333Z,11.00
2022-11-05T16:13:53.941Z,10.75
2022-11-05T16:16:32.964Z,29.75
2022-11-05T16:19:01.037Z,17.40
2022-11-05T16:21:29.177Z,66.00
2022-11-05T16:23:58.034Z,88.50
2022-11-05T16:29:32.718Z,40.40
2022-11-05T16:32:01.830Z,18.80
2022-11-05T16:34:33.477Z,20.00
2022-11-05T16:37:01.539Z,14.40
2022-11-05T16:39:29.568Z,13.50
2022-11-05T16:41:57.729Z,14.50
2022-11-05T16:44:27.168Z,24.00
2022-11-05T16:46:55.235Z,20.60
2022-11-05T16:49:23.278Z,17.00
2022-11-05T16:51:51.347Z,17.67
2022-11-05T16:54:19.381Z,18.80
2022-11-05T16:56:47.536Z,24.00
2022-11-05T16:59:15.570Z,33.60
2022-11-05T17:01:45.057Z,32.60
2022-11-05T17:04:14.082Z,20.00
2022-11-05T17:06:43.807Z,19.50
2022-11-05T17:09:11.871Z,25.60
2022-11-05T17:11:39.954Z,15.80
2022-11-05T17:14:09.657Z,14.00
2022-11-05T17:16:38.617Z,10.00
2022-11-05T17:19:08.369Z,21.00
2022-11-05T17:21:36.728Z,29.60
2022-11-05T17:24:05.062Z,14.40
2022-11-05T17:26:33.129Z,12.80
2022-11-05T17:29:01.175Z,14.40
2022-11-05T17:31:29.235Z,19.50
2022-11-05T17:33:57.431Z,19.00
2022-11-05T17:36:27.209Z,36.40
2022-11-05T17:38:55.275Z,25.00
2022-11-05T17:41:23.820Z,11.60
2022-11-05T17:43:54.866Z,23.00
2022-11-05T17:46:22.939Z,16.00
2022-11-05T17:48:51.001Z,16.67
2022-11-05T17:51:19.560Z,11.00
2022-11-05T17:53:49.319Z,10.00
2022-11-05T17:56:28.902Z,15.00
2022-11-05T17:59:01.742Z,10.00
2022-11-05T18:01:31.061Z,8.60
2022-11-05T18:04:03.780Z,13.00
2022-11-05T18:06:36.273Z,13.00
2022-11-05T18:09:05.707Z,17.00
2022-11-05T18:11:34.130Z,17.00
2022-11-05T18:14:03.811Z,12.00
2022-11-05T18:16:31.883Z,13.50
2022-11-05T18:18:59.942Z,13.00
2022-11-05T18:21:27.993Z,16.00
2022-11-05T18:23:56.030Z,13.00
2022-11-05T18:26:25.663Z,12.00
2022-11-05T18:28:53.702Z,10.00
2022-11-05T18:31:22.305Z,26.25
2022-11-05T18:33:50.509Z,24.20
2022-11-05T18:36:18.874Z,16.00
2022-11-05T18:38:46.895Z,46.40
2022-11-05T18:41:15.001Z,39.00
2022-11-05T18:43:44.408Z,69.20
2022-11-05T18:46:29.320Z,56.00
2022-11-05T18:49:00.917Z,46.40
2022-11-05T18:51:28.991Z,45.00
2022-11-05T18:53:57.021Z,41.25
2022-11-05T18:56:25.135Z,41.00
2022-11-05T18:59:21.811Z,16.00
2022-11-05T19:01:43.432Z,22.25
2022-11-05T19:04:11.600Z,26.00
2022-11-05T19:06:39.769Z,26.00
2022-11-05T19:09:08.998Z,25.50
2022-11-05T19:11:37.178Z,18.20
2022-11-05T19:14:06.888Z,23.00
2022-11-05T19:16:34.994Z,15.00
2022-11-05T19:19:04.300Z,19.00
2022-11-05T19:21:32.544Z,18.00
2022-11-05T19:24:02.410Z,17.25
2022-11-05T19:26:30.572Z,15.60
2022-11-05T19:28:59.309Z,16.40
2022-11-05T19:31:28.739Z,14.00
2022-11-05T19:33:56.770Z,21.00
2022-11-05T19:36:25.353Z,16.40
2022-11-05T19:38:57.456Z,18.40
2022-11-05T19:41:25.581Z,16.50
2022-11-05T19:43:54.274Z,14.00
2022-11-05T19:46:23.512Z,16.00
2022-11-05T19:48:53.126Z,14.00
2022-11-05T19:51:22.773Z,17.50
2022-11-05T19:53:51.448Z,14.20
2022-11-05T19:56:20.484Z,8.40
2022-11-05T19:58:48.883Z,12.00
2022-11-05T20:01:17.559Z,21.60
2022-11-05T20:03:45.782Z,11.00
2022-11-05T20:06:16.171Z,13.00
2022-11-05T20:09:14.821Z,12.80
2022-11-05T20:11:32.805Z,9.80
2022-11-05T20:14:00.833Z,10.50
2022-11-05T20:16:29.795Z,9.50
2022-11-05T20:18:58.539Z,9.00
2022-11-05T20:21:27.957Z,11.00
2022-11-05T20:23:56.718Z,10.40
2022-11-05T20:26:24.789Z,11.50
2022-11-05T20:28:52.824Z,11.00
2022-11-05T20:31:20.884Z,10.00
2022-11-05T20:33:48.923Z,13.00
2022-11-05T20:36:18.488Z,24.80
2022-11-05T20:38:50.140Z,19.00
2022-11-05T20:41:18.263Z,21.00
2022-11-05T20:43:46.879Z,26.00
2022-11-05T20:46:16.009Z,20.00
2022-11-05T20:48:44.052Z,32.00
2022-11-05T20:51:13.416Z,38.40
2022-11-05T20:53:41.452Z,28.75
2022-11-05T20:56:16.942Z,31.60
2022-11-05T20:58:45.483Z,22.75
2022-11-05T21:01:13.848Z,45.25
2022-11-05T21:03:41.968Z,28.00
2022-11-05T21:06:10.089Z,35.00
2022-11-05T21:08:38.150Z,37.20
2022-11-05T21:11:07.115Z,23.80
2022-11-05T21:13:36.537Z,13.00
2022-11-05T21:16:06.388Z,18.00
2022-11-05T21:18:35.379Z,17.20
2022-11-05T21:21:05.995Z,14.25
2022-11-05T21:23:34.021Z,13.25
2022-11-05T21:26:04.987Z,14.80
2022-11-05T21:28:33.070Z,11.00
2022-11-05T21:31:03.401Z,14.60
2022-11-05T21:33:31.457Z,13.00
2022-11-05T21:35:59.512Z,11.20
2022-11-05T21:38:27.559Z,10.00
2022-11-05T21:40:55.629Z,9.20
2022-11-05T21:43:23.666Z,13.75
2022-11-05T21:45:51.760Z,18.00
2022-11-05T21:48:21.140Z,10.60
2022-11-05T21:51:09.426Z,10.00
2022-11-05T21:53:54.322Z,14.00
2022-11-05T21:56:41.559Z,10.00
2022-11-05T21:59:28.749Z,12.00
2022-11-05T22:02:01.673Z,10.00
2022-11-05T22:04:31.629Z,13.00
2022-11-05T22:06:59.702Z,10.67
2022-11-05T22:09:27.851Z,13.80
2022-11-05T22:11:55.981Z,9.80
2022-11-05T22:14:24.156Z,12.20
2022-11-05T22:16:52.216Z,14.00
2022-11-05T22:19:20.428Z,16.50
2022-11-05T22:21:49.905Z,14.00
2022-11-05T22:24:18.037Z,14.60
2022-11-05T22:26:46.230Z,13.40
2022-11-05T22:29:14.330Z,13.00
2022-11-05T22:31:42.640Z,12.00
2022-11-05T22:34:10.888Z,12.60
2022-11-05T22:36:38.955Z,11.60
2022-11-05T22:39:08.362Z,12.20
2022-11-05T22:41:36.467Z,12.00
2022-11-05T22:44:04.761Z,12.00
2022-11-05T22:46:32.877Z,11.20
2022-11-05T22:49:01.179Z,14.40
2022-11-05T22:51:30.124Z,10.40
2022-11-05T22:53:58.187Z,8.00
2022-11-05T22:56:28.351Z,14.00
2022-11-05T22:58:56.427Z,11.20
2022-11-05T23:01:24.851Z,13.00
2022-11-05T23:03:54.409Z,12.60
2022-11-05T23:06:40.996Z,12.50
2022-11-05T23:09:42.392Z,13.50
2022-11-05T23:12:22.450Z,11.80
2022-11-05T23:14:50.520Z,10.50
2022-11-05T23:17:36.017Z,14.75
2022-11-05T23:20:22.048Z,16.00
2022-11-05T23:23:07.521Z,13.75
2022-11-05T23:25:35.713Z,15.00
2022-11-05T23:28:06.555Z,14.00
2022-11-05T23:30:34.636Z,16.40
2022-11-05T23:33:01.687Z,19.00
2022-11-05T23:35:47.444Z,18.00
2022-11-05T23:38:44.325Z,23.00
2022-11-05T23:41:30.094Z,19.00
2022-11-05T23:44:17.101Z,23.20
2022-11-05T23:47:02.619Z,25.80
2022-11-05T23:49:30.671Z,21.00
2022-11-05T23:51:58.713Z,20.67
2022-11-05T23:54:26.782Z,20.00
2022-11-05T23:56:54.809Z,31.00
2022-11-05T23:59:24.413Z,29.50
